Řízení letového provozu České republiky
Letiste: LKKU Aktualizace: 23.08.2017 08:04:04  UTC
 METAR LKKU 23.08. 08:00 ...
METAR LKKU 230800Z VRB01KT 9999 FEW034 16/08 Q1020 RMK REG QNH 1017=